7CO5 weather

Yocam Ranch Airport
Orchard, Colorado, United States

Public forecast

Using degrees Fahrenheit for public forecast. Weather courtesy of forecast.io.

METAR (pilot weather report)

Closest report is Fort Morgan Municipal Airport, 19.6 nm (36.3 km) E. Retrieved 2019/08/18 00:35 UTC (0 seconds ago):

KFMM 180035Z AUTO 17008KT 10SM CLR 25/07 A2985 RMK AO2 T02470067

TAF (pilot weather forecast)

Forecast is more than 12 hours old.

Closest forecast is Denver International Airport, 33.3 nm (61.6 km) SW. Retrieved 2019/08/17 00:39 UTC (24 hours ago):

TAF KDEN 172336Z 1800/1906 04012KT P6SM VCTS SCT100CB BKN150 FM180300 12008KT P6SM SCT150 FM180600 21006KT P6SM FEW150 FM181000 36008KT P6SM SCT020 TEMPO 1812/1815 2SM BR BKN020 FM181700 09008KT P6SM FEW090 FEW250 FM190200 16008KT P6SM FEW120 SCT250